<?xml version="1.0" encoding="UTF-8"?>
<gpx xmlns="http://www.topografix.com/GPX/1/1" xmlns:xsi="http://www.w3.org/2001/XMLSchema-instance" version="1.1" xsi:schemaLocation="http://www.topografix.com/GPX/1/1 http://www.topografix.com/GPX/1/1/gpx.xsd">
  <metadata>
    <name>Box End Triathlon I 2026 - Aquabike Sprint</name>
  </metadata>
  <trk>
    <name>Box End Triathlon I 2026 - Aquabike Sprint</name>
    <trkseg>
      <trkpt lat="52.121778" lon="-0.52322">
        <ele>31.260789</ele>
        <time>2026-05-24T07:15:00.000Z</time>
      </trkpt>
      <trkpt lat="52.121455" lon="-0.523164">
        <ele>31.260788</ele>
        <time>2026-05-24T07:15:04.000Z</time>
      </trkpt>
      <trkpt lat="52.121109" lon="-0.523043">
        <ele>31.260795</ele>
        <time>2026-05-24T07:15:08.000Z</time>
      </trkpt>
      <trkpt lat="52.120344" lon="-0.522613">
        <ele>31.747265</ele>
        <time>2026-05-24T07:15:17.000Z</time>
      </trkpt>
      <trkpt lat="52.120037" lon="-0.522342">
        <ele>32.039265</ele>
        <time>2026-05-24T07:15:21.000Z</time>
      </trkpt>
      <trkpt lat="52.119096" lon="-0.521107">
        <ele>32.339695</ele>
        <time>2026-05-24T07:15:34.000Z</time>
      </trkpt>
      <trkpt lat="52.118579" lon="-0.520421">
        <ele>31.556203</ele>
        <time>2026-05-24T07:15:41.000Z</time>
      </trkpt>
      <trkpt lat="52.118002" lon="-0.519605">
        <ele>30.660885</ele>
        <time>2026-05-24T07:15:49.000Z</time>
      </trkpt>
      <trkpt lat="52.117391" lon="-0.518734">
        <ele>29.925414</ele>
        <time>2026-05-24T07:15:58.000Z</time>
      </trkpt>
      <trkpt lat="52.11734" lon="-0.518636">
        <ele>29.857539</ele>
        <time>2026-05-24T07:15:59.000Z</time>
      </trkpt>
      <trkpt lat="52.117413" lon="-0.518486">
        <ele>29.76008</ele>
        <time>2026-05-24T07:16:00.000Z</time>
      </trkpt>
      <trkpt lat="52.117403" lon="-0.518309">
        <ele>29.662424</ele>
        <time>2026-05-24T07:16:01.000Z</time>
      </trkpt>
      <trkpt lat="52.11739" lon="-0.518234">
        <ele>29.612921</ele>
        <time>2026-05-24T07:16:02.000Z</time>
      </trkpt>
      <trkpt lat="52.118096" lon="-0.517077">
        <ele>28.770368</ele>
        <time>2026-05-24T07:16:13.000Z</time>
      </trkpt>
      <trkpt lat="52.119432" lon="-0.515032">
        <ele>27.613348</ele>
        <time>2026-05-24T07:16:33.000Z</time>
      </trkpt>
      <trkpt lat="52.120269" lon="-0.513718">
        <ele>27.318415</ele>
        <time>2026-05-24T07:16:46.000Z</time>
      </trkpt>
      <trkpt lat="52.120552" lon="-0.513214">
        <ele>27.281644</ele>
        <time>2026-05-24T07:16:51.000Z</time>
      </trkpt>
      <trkpt lat="52.120776" lon="-0.513035">
        <ele>27.324366</ele>
        <time>2026-05-24T07:16:54.000Z</time>
      </trkpt>
      <trkpt lat="52.120841" lon="-0.513047">
        <ele>27.337105</ele>
        <time>2026-05-24T07:16:55.000Z</time>
      </trkpt>
      <trkpt lat="52.121138" lon="-0.51325">
        <ele>27.388821</ele>
        <time>2026-05-24T07:16:59.000Z</time>
      </trkpt>
      <trkpt lat="52.121959" lon="-0.514333">
        <ele>27.583083</ele>
        <time>2026-05-24T07:17:11.000Z</time>
      </trkpt>
      <trkpt lat="52.122423" lon="-0.514789">
        <ele>27.807549</ele>
        <time>2026-05-24T07:17:17.000Z</time>
      </trkpt>
      <trkpt lat="52.122992" lon="-0.515239">
        <ele>28.06926</ele>
        <time>2026-05-24T07:17:24.000Z</time>
      </trkpt>
      <trkpt lat="52.123657" lon="-0.51566">
        <ele>28.340477</ele>
        <time>2026-05-24T07:17:32.000Z</time>
      </trkpt>
      <trkpt lat="52.12459" lon="-0.516142">
        <ele>28.599988</ele>
        <time>2026-05-24T07:17:43.000Z</time>
      </trkpt>
      <trkpt lat="52.126783" lon="-0.51719">
        <ele>29.106713</ele>
        <time>2026-05-24T07:18:08.000Z</time>
      </trkpt>
      <trkpt lat="52.126791" lon="-0.517209">
        <ele>29.111174</ele>
        <time>2026-05-24T07:18:08.000Z</time>
      </trkpt>
      <trkpt lat="52.128531" lon="-0.517995">
        <ele>29.061548</ele>
        <time>2026-05-24T07:18:28.000Z</time>
      </trkpt>
      <trkpt lat="52.128711" lon="-0.518168">
        <ele>29.048386</ele>
        <time>2026-05-24T07:18:30.000Z</time>
      </trkpt>
      <trkpt lat="52.128794" lon="-0.518372">
        <ele>29.032976</ele>
        <time>2026-05-24T07:18:32.000Z</time>
      </trkpt>
      <trkpt lat="52.128833" lon="-0.518591">
        <ele>29.017613</ele>
        <time>2026-05-24T07:18:34.000Z</time>
      </trkpt>
      <trkpt lat="52.128952" lon="-0.518748">
        <ele>29.002277</ele>
        <time>2026-05-24T07:18:36.000Z</time>
      </trkpt>
      <trkpt lat="52.129033" lon="-0.518761">
        <ele>28.994439</ele>
        <time>2026-05-24T07:18:37.000Z</time>
      </trkpt>
      <trkpt lat="52.129176" lon="-0.518684">
        <ele>28.979163</ele>
        <time>2026-05-24T07:18:39.000Z</time>
      </trkpt>
      <trkpt lat="52.129624" lon="-0.518683">
        <ele>28.932405</ele>
        <time>2026-05-24T07:18:44.000Z</time>
      </trkpt>
      <trkpt lat="52.1313" lon="-0.519593">
        <ele>28.784976</ele>
        <time>2026-05-24T07:19:04.000Z</time>
      </trkpt>
      <trkpt lat="52.134235" lon="-0.521456">
        <ele>28.599382</ele>
        <time>2026-05-24T07:19:39.000Z</time>
      </trkpt>
      <trkpt lat="52.134728" lon="-0.521721">
        <ele>28.622681</ele>
        <time>2026-05-24T07:19:45.000Z</time>
      </trkpt>
      <trkpt lat="52.135949" lon="-0.522164">
        <ele>28.880567</ele>
        <time>2026-05-24T07:19:59.000Z</time>
      </trkpt>
      <trkpt lat="52.136546" lon="-0.522293">
        <ele>29.094496</ele>
        <time>2026-05-24T07:20:06.000Z</time>
      </trkpt>
      <trkpt lat="52.136933" lon="-0.522345">
        <ele>29.229244</ele>
        <time>2026-05-24T07:20:10.000Z</time>
      </trkpt>
      <trkpt lat="52.137679" lon="-0.522335">
        <ele>29.41196</ele>
        <time>2026-05-24T07:20:18.000Z</time>
      </trkpt>
      <trkpt lat="52.13854" lon="-0.522247">
        <ele>29.600466</ele>
        <time>2026-05-24T07:20:28.000Z</time>
      </trkpt>
      <trkpt lat="52.140143" lon="-0.521998">
        <ele>29.46467</ele>
        <time>2026-05-24T07:20:46.000Z</time>
      </trkpt>
      <trkpt lat="52.141963" lon="-0.521793">
        <ele>29.260924</ele>
        <time>2026-05-24T07:21:06.000Z</time>
      </trkpt>
      <trkpt lat="52.1421" lon="-0.521867">
        <ele>29.248743</ele>
        <time>2026-05-24T07:21:08.000Z</time>
      </trkpt>
      <trkpt lat="52.142301" lon="-0.521971">
        <ele>29.229847</ele>
        <time>2026-05-24T07:21:10.000Z</time>
      </trkpt>
      <trkpt lat="52.142461" lon="-0.522121">
        <ele>29.234632</ele>
        <time>2026-05-24T07:21:12.000Z</time>
      </trkpt>
      <trkpt lat="52.142533" lon="-0.522259">
        <ele>29.293411</ele>
        <time>2026-05-24T07:21:13.000Z</time>
      </trkpt>
      <trkpt lat="52.1426" lon="-0.522753">
        <ele>29.460615</ele>
        <time>2026-05-24T07:21:16.000Z</time>
      </trkpt>
      <trkpt lat="52.142648" lon="-0.52297">
        <ele>29.536677</ele>
        <time>2026-05-24T07:21:18.000Z</time>
      </trkpt>
      <trkpt lat="52.142623" lon="-0.523491">
        <ele>29.706764</ele>
        <time>2026-05-24T07:21:22.000Z</time>
      </trkpt>
      <trkpt lat="52.142576" lon="-0.523847">
        <ele>29.825898</ele>
        <time>2026-05-24T07:21:24.000Z</time>
      </trkpt>
      <trkpt lat="52.14235" lon="-0.525762">
        <ele>31.936576</ele>
        <time>2026-05-24T07:21:37.000Z</time>
      </trkpt>
      <trkpt lat="52.142207" lon="-0.527">
        <ele>34.42807</ele>
        <time>2026-05-24T07:21:46.000Z</time>
      </trkpt>
      <trkpt lat="52.142074" lon="-0.527853">
        <ele>36.241335</ele>
        <time>2026-05-24T07:21:52.000Z</time>
      </trkpt>
      <trkpt lat="52.141944" lon="-0.528702">
        <ele>38.882641</ele>
        <time>2026-05-24T07:21:58.000Z</time>
      </trkpt>
      <trkpt lat="52.141768" lon="-0.529726">
        <ele>42.08593</ele>
        <time>2026-05-24T07:22:05.000Z</time>
      </trkpt>
      <trkpt lat="52.141748" lon="-0.529834">
        <ele>42.45577</ele>
        <time>2026-05-24T07:22:06.000Z</time>
      </trkpt>
      <trkpt lat="52.141627" lon="-0.530472">
        <ele>44.451557</ele>
        <time>2026-05-24T07:22:11.000Z</time>
      </trkpt>
      <trkpt lat="52.141311" lon="-0.532029">
        <ele>47.805229</ele>
        <time>2026-05-24T07:22:22.000Z</time>
      </trkpt>
      <trkpt lat="52.14102" lon="-0.533317">
        <ele>50.49392</ele>
        <time>2026-05-24T07:22:31.000Z</time>
      </trkpt>
      <trkpt lat="52.140531" lon="-0.535235">
        <ele>50.980446</ele>
        <time>2026-05-24T07:22:45.000Z</time>
      </trkpt>
      <trkpt lat="52.140342" lon="-0.53607">
        <ele>51.149547</ele>
        <time>2026-05-24T07:22:51.000Z</time>
      </trkpt>
      <trkpt lat="52.140314" lon="-0.536218">
        <ele>50.933448</ele>
        <time>2026-05-24T07:22:52.000Z</time>
      </trkpt>
      <trkpt lat="52.140146" lon="-0.537136">
        <ele>49.513553</ele>
        <time>2026-05-24T07:22:59.000Z</time>
      </trkpt>
      <trkpt lat="52.140002" lon="-0.538316">
        <ele>47.749861</ele>
        <time>2026-05-24T07:23:07.000Z</time>
      </trkpt>
      <trkpt lat="52.139939" lon="-0.539056">
        <ele>46.485793</ele>
        <time>2026-05-24T07:23:12.000Z</time>
      </trkpt>
      <trkpt lat="52.1399" lon="-0.539796">
        <ele>44.63843</ele>
        <time>2026-05-24T07:23:17.000Z</time>
      </trkpt>
      <trkpt lat="52.139886" lon="-0.539851">
        <ele>44.526846</ele>
        <time>2026-05-24T07:23:17.000Z</time>
      </trkpt>
      <trkpt lat="52.139882" lon="-0.540893">
        <ele>41.959007</ele>
        <time>2026-05-24T07:23:24.000Z</time>
      </trkpt>
      <trkpt lat="52.139909" lon="-0.542002">
        <ele>39.607666</ele>
        <time>2026-05-24T07:23:32.000Z</time>
      </trkpt>
      <trkpt lat="52.13999" lon="-0.543027">
        <ele>39.715116</ele>
        <time>2026-05-24T07:23:39.000Z</time>
      </trkpt>
      <trkpt lat="52.140141" lon="-0.543898">
        <ele>39.807795</ele>
        <time>2026-05-24T07:23:45.000Z</time>
      </trkpt>
      <trkpt lat="52.140296" lon="-0.544372">
        <ele>39.86213</ele>
        <time>2026-05-24T07:23:49.000Z</time>
      </trkpt>
      <trkpt lat="52.140431" lon="-0.544715">
        <ele>40.06151</ele>
        <time>2026-05-24T07:23:52.000Z</time>
      </trkpt>
      <trkpt lat="52.140682" lon="-0.545075">
        <ele>40.819458</ele>
        <time>2026-05-24T07:23:56.000Z</time>
      </trkpt>
      <trkpt lat="52.140672" lon="-0.545169">
        <ele>40.961817</ele>
        <time>2026-05-24T07:23:57.000Z</time>
      </trkpt>
      <trkpt lat="52.1407" lon="-0.545279">
        <ele>41.124444</ele>
        <time>2026-05-24T07:23:58.000Z</time>
      </trkpt>
      <trkpt lat="52.140755" lon="-0.545337">
        <ele>41.291822</ele>
        <time>2026-05-24T07:23:59.000Z</time>
      </trkpt>
      <trkpt lat="52.140562" lon="-0.546532">
        <ele>43.041897</ele>
        <time>2026-05-24T07:24:07.000Z</time>
      </trkpt>
      <trkpt lat="52.140465" lon="-0.546999">
        <ele>43.758701</ele>
        <time>2026-05-24T07:24:10.000Z</time>
      </trkpt>
      <trkpt lat="52.140362" lon="-0.547315">
        <ele>44.086471</ele>
        <time>2026-05-24T07:24:12.000Z</time>
      </trkpt>
      <trkpt lat="52.140019" lon="-0.548205">
        <ele>44.223161</ele>
        <time>2026-05-24T07:24:19.000Z</time>
      </trkpt>
      <trkpt lat="52.139718" lon="-0.548841">
        <ele>44.32731</ele>
        <time>2026-05-24T07:24:24.000Z</time>
      </trkpt>
      <trkpt lat="52.139442" lon="-0.549332">
        <ele>44.413911</ele>
        <time>2026-05-24T07:24:29.000Z</time>
      </trkpt>
      <trkpt lat="52.139185" lon="-0.549779">
        <ele>44.301677</ele>
        <time>2026-05-24T07:24:33.000Z</time>
      </trkpt>
      <trkpt lat="52.137408" lon="-0.552316">
        <ele>42.775112</ele>
        <time>2026-05-24T07:24:59.000Z</time>
      </trkpt>
      <trkpt lat="52.137105" lon="-0.552663">
        <ele>42.596571</ele>
        <time>2026-05-24T07:25:03.000Z</time>
      </trkpt>
      <trkpt lat="52.135195" lon="-0.555145">
        <ele>42.05351</ele>
        <time>2026-05-24T07:25:30.000Z</time>
      </trkpt>
      <trkpt lat="52.134504" lon="-0.556034">
        <ele>42.341391</ele>
        <time>2026-05-24T07:25:40.000Z</time>
      </trkpt>
      <trkpt lat="52.132585" lon="-0.558248">
        <ele>43.236348</ele>
        <time>2026-05-24T07:26:06.000Z</time>
      </trkpt>
      <trkpt lat="52.130713" lon="-0.560383">
        <ele>44.46204</ele>
        <time>2026-05-24T07:26:31.000Z</time>
      </trkpt>
      <trkpt lat="52.130215" lon="-0.560967">
        <ele>45.221943</ele>
        <time>2026-05-24T07:26:38.000Z</time>
      </trkpt>
      <trkpt lat="52.129871" lon="-0.561459">
        <ele>45.779224</ele>
        <time>2026-05-24T07:26:43.000Z</time>
      </trkpt>
      <trkpt lat="52.129797" lon="-0.561584">
        <ele>45.926478</ele>
        <time>2026-05-24T07:26:44.000Z</time>
      </trkpt>
      <trkpt lat="52.129487" lon="-0.562118">
        <ele>46.483081</ele>
        <time>2026-05-24T07:26:49.000Z</time>
      </trkpt>
      <trkpt lat="52.129094" lon="-0.562886">
        <ele>47.930786</ele>
        <time>2026-05-24T07:26:56.000Z</time>
      </trkpt>
      <trkpt lat="52.128831" lon="-0.563545">
        <ele>49.161585</ele>
        <time>2026-05-24T07:27:01.000Z</time>
      </trkpt>
      <trkpt lat="52.128726" lon="-0.563815">
        <ele>49.637654</ele>
        <time>2026-05-24T07:27:03.000Z</time>
      </trkpt>
      <trkpt lat="52.128484" lon="-0.564591">
        <ele>50.984089</ele>
        <time>2026-05-24T07:27:09.000Z</time>
      </trkpt>
      <trkpt lat="52.127561" lon="-0.567861">
        <ele>57.996923</ele>
        <time>2026-05-24T07:27:34.000Z</time>
      </trkpt>
      <trkpt lat="52.127532" lon="-0.567904">
        <ele>58.104117</ele>
        <time>2026-05-24T07:27:34.000Z</time>
      </trkpt>
      <trkpt lat="52.126954" lon="-0.569862">
        <ele>61.658943</ele>
        <time>2026-05-24T07:27:49.000Z</time>
      </trkpt>
      <trkpt lat="52.125742" lon="-0.573669">
        <ele>64.880506</ele>
        <time>2026-05-24T07:28:18.000Z</time>
      </trkpt>
      <trkpt lat="52.125599" lon="-0.574073">
        <ele>64.81648</ele>
        <time>2026-05-24T07:28:21.000Z</time>
      </trkpt>
      <trkpt lat="52.125498" lon="-0.574416">
        <ele>64.759493</ele>
        <time>2026-05-24T07:28:24.000Z</time>
      </trkpt>
      <trkpt lat="52.122037" lon="-0.570439">
        <ele>53.532184</ele>
        <time>2026-05-24T07:29:11.000Z</time>
      </trkpt>
      <trkpt lat="52.121808" lon="-0.569963">
        <ele>53.224879</ele>
        <time>2026-05-24T07:29:15.000Z</time>
      </trkpt>
      <trkpt lat="52.121619" lon="-0.569468">
        <ele>52.930946</ele>
        <time>2026-05-24T07:29:19.000Z</time>
      </trkpt>
      <trkpt lat="52.121438" lon="-0.569068">
        <ele>52.693613</ele>
        <time>2026-05-24T07:29:22.000Z</time>
      </trkpt>
      <trkpt lat="52.121247" lon="-0.568566">
        <ele>52.397178</ele>
        <time>2026-05-24T07:29:26.000Z</time>
      </trkpt>
      <trkpt lat="52.120308" lon="-0.56601">
        <ele>56.534562</ele>
        <time>2026-05-24T07:29:46.000Z</time>
      </trkpt>
      <trkpt lat="52.11928" lon="-0.563382">
        <ele>62.877763</ele>
        <time>2026-05-24T07:30:07.000Z</time>
      </trkpt>
      <trkpt lat="52.119068" lon="-0.562896">
        <ele>62.528758</ele>
        <time>2026-05-24T07:30:11.000Z</time>
      </trkpt>
      <trkpt lat="52.118457" lon="-0.561709">
        <ele>59.857795</ele>
        <time>2026-05-24T07:30:22.000Z</time>
      </trkpt>
      <trkpt lat="52.117087" lon="-0.55849">
        <ele>50.457935</ele>
        <time>2026-05-24T07:30:49.000Z</time>
      </trkpt>
      <trkpt lat="52.116809" lon="-0.557946">
        <ele>49.597588</ele>
        <time>2026-05-24T07:30:54.000Z</time>
      </trkpt>
      <trkpt lat="52.115765" lon="-0.554799">
        <ele>46.208371</ele>
        <time>2026-05-24T07:31:18.000Z</time>
      </trkpt>
      <trkpt lat="52.115702" lon="-0.55456">
        <ele>46.074844</ele>
        <time>2026-05-24T07:31:20.000Z</time>
      </trkpt>
      <trkpt lat="52.115729" lon="-0.55442">
        <ele>46.005079</ele>
        <time>2026-05-24T07:31:21.000Z</time>
      </trkpt>
      <trkpt lat="52.115753" lon="-0.554293">
        <ele>45.931826</ele>
        <time>2026-05-24T07:31:22.000Z</time>
      </trkpt>
      <trkpt lat="52.116809" lon="-0.553101">
        <ele>44.954726</ele>
        <time>2026-05-24T07:31:36.000Z</time>
      </trkpt>
      <trkpt lat="52.117132" lon="-0.552665">
        <ele>44.669098</ele>
        <time>2026-05-24T07:31:41.000Z</time>
      </trkpt>
      <trkpt lat="52.118654" lon="-0.550311">
        <ele>43.020411</ele>
        <time>2026-05-24T07:32:04.000Z</time>
      </trkpt>
      <trkpt lat="52.119474" lon="-0.548792">
        <ele>42.479028</ele>
        <time>2026-05-24T07:32:18.000Z</time>
      </trkpt>
      <trkpt lat="52.119967" lon="-0.548172">
        <ele>42.335655</ele>
        <time>2026-05-24T07:32:25.000Z</time>
      </trkpt>
      <trkpt lat="52.120299" lon="-0.547547">
        <ele>42.197977</ele>
        <time>2026-05-24T07:32:31.000Z</time>
      </trkpt>
      <trkpt lat="52.121332" lon="-0.545674">
        <ele>41.687717</ele>
        <time>2026-05-24T07:32:48.000Z</time>
      </trkpt>
      <trkpt lat="52.121799" lon="-0.544863">
        <ele>41.506027</ele>
        <time>2026-05-24T07:32:56.000Z</time>
      </trkpt>
      <trkpt lat="52.122131" lon="-0.544391">
        <ele>41.39341</ele>
        <time>2026-05-24T07:33:01.000Z</time>
      </trkpt>
      <trkpt lat="52.122392" lon="-0.544093">
        <ele>41.308269</ele>
        <time>2026-05-24T07:33:05.000Z</time>
      </trkpt>
      <trkpt lat="52.122803" lon="-0.543521">
        <ele>41.219147</ele>
        <time>2026-05-24T07:33:11.000Z</time>
      </trkpt>
      <trkpt lat="52.123019" lon="-0.543254">
        <ele>41.310558</ele>
        <time>2026-05-24T07:33:14.000Z</time>
      </trkpt>
      <trkpt lat="52.12312" lon="-0.543166">
        <ele>41.354186</ele>
        <time>2026-05-24T07:33:15.000Z</time>
      </trkpt>
      <trkpt lat="52.123453" lon="-0.542819">
        <ele>41.486547</ele>
        <time>2026-05-24T07:33:19.000Z</time>
      </trkpt>
      <trkpt lat="52.123684" lon="-0.542521">
        <ele>41.593863</ele>
        <time>2026-05-24T07:33:22.000Z</time>
      </trkpt>
      <trkpt lat="52.123808" lon="-0.542291">
        <ele>41.658305</ele>
        <time>2026-05-24T07:33:24.000Z</time>
      </trkpt>
      <trkpt lat="52.123876" lon="-0.542097">
        <ele>41.707688</ele>
        <time>2026-05-24T07:33:26.000Z</time>
      </trkpt>
      <trkpt lat="52.124042" lon="-0.541386">
        <ele>41.820841</ele>
        <time>2026-05-24T07:33:31.000Z</time>
      </trkpt>
      <trkpt lat="52.124218" lon="-0.54096">
        <ele>41.838461</ele>
        <time>2026-05-24T07:33:35.000Z</time>
      </trkpt>
      <trkpt lat="52.124344" lon="-0.540772">
        <ele>41.848358</ele>
        <time>2026-05-24T07:33:37.000Z</time>
      </trkpt>
      <trkpt lat="52.124532" lon="-0.540565">
        <ele>41.861044</ele>
        <time>2026-05-24T07:33:40.000Z</time>
      </trkpt>
      <trkpt lat="52.124754" lon="-0.540619">
        <ele>41.874425</ele>
        <time>2026-05-24T07:33:42.000Z</time>
      </trkpt>
      <trkpt lat="52.124924" lon="-0.540695">
        <ele>41.883858</ele>
        <time>2026-05-24T07:33:44.000Z</time>
      </trkpt>
      <trkpt lat="52.125162" lon="-0.540887">
        <ele>41.899601</ele>
        <time>2026-05-24T07:33:47.000Z</time>
      </trkpt>
      <trkpt lat="52.125348" lon="-0.540959">
        <ele>41.910368</ele>
        <time>2026-05-24T07:33:49.000Z</time>
      </trkpt>
      <trkpt lat="52.125487" lon="-0.540941">
        <ele>41.919496</ele>
        <time>2026-05-24T07:33:51.000Z</time>
      </trkpt>
      <trkpt lat="52.125566" lon="-0.540884">
        <ele>41.92713</ele>
        <time>2026-05-24T07:33:52.000Z</time>
      </trkpt>
      <trkpt lat="52.125698" lon="-0.540739">
        <ele>41.939493</ele>
        <time>2026-05-24T07:33:54.000Z</time>
      </trkpt>
      <trkpt lat="52.126077" lon="-0.540154">
        <ele>41.982168</ele>
        <time>2026-05-24T07:34:00.000Z</time>
      </trkpt>
      <trkpt lat="52.12616" lon="-0.540052">
        <ele>41.989518</ele>
        <time>2026-05-24T07:34:01.000Z</time>
      </trkpt>
      <trkpt lat="52.126906" lon="-0.539157">
        <ele>42.076843</ele>
        <time>2026-05-24T07:34:11.000Z</time>
      </trkpt>
      <trkpt lat="52.126942" lon="-0.539132">
        <ele>42.084427</ele>
        <time>2026-05-24T07:34:11.000Z</time>
      </trkpt>
      <trkpt lat="52.127386" lon="-0.538551">
        <ele>42.217776</ele>
        <time>2026-05-24T07:34:17.000Z</time>
      </trkpt>
      <trkpt lat="52.128763" lon="-0.536565">
        <ele>42.566057</ele>
        <time>2026-05-24T07:34:37.000Z</time>
      </trkpt>
      <trkpt lat="52.129226" lon="-0.535826">
        <ele>42.640462</ele>
        <time>2026-05-24T07:34:44.000Z</time>
      </trkpt>
      <trkpt lat="52.129902" lon="-0.534591">
        <ele>42.473521</ele>
        <time>2026-05-24T07:34:55.000Z</time>
      </trkpt>
      <trkpt lat="52.13003" lon="-0.534284">
        <ele>42.388314</ele>
        <time>2026-05-24T07:34:58.000Z</time>
      </trkpt>
      <trkpt lat="52.130165" lon="-0.533935">
        <ele>42.295532</ele>
        <time>2026-05-24T07:35:01.000Z</time>
      </trkpt>
      <trkpt lat="52.13036" lon="-0.533314">
        <ele>42.13661</ele>
        <time>2026-05-24T07:35:06.000Z</time>
      </trkpt>
      <trkpt lat="52.130464" lon="-0.532504">
        <ele>41.784559</ele>
        <time>2026-05-24T07:35:12.000Z</time>
      </trkpt>
      <trkpt lat="52.130517" lon="-0.531125">
        <ele>40.76989</ele>
        <time>2026-05-24T07:35:21.000Z</time>
      </trkpt>
      <trkpt lat="52.130609" lon="-0.530519">
        <ele>40.321242</ele>
        <time>2026-05-24T07:35:25.000Z</time>
      </trkpt>
      <trkpt lat="52.130771" lon="-0.529729">
        <ele>39.598783</ele>
        <time>2026-05-24T07:35:31.000Z</time>
      </trkpt>
      <trkpt lat="52.131068" lon="-0.528683">
        <ele>38.265578</ele>
        <time>2026-05-24T07:35:39.000Z</time>
      </trkpt>
      <trkpt lat="52.131132" lon="-0.528238">
        <ele>37.743505</ele>
        <time>2026-05-24T07:35:42.000Z</time>
      </trkpt>
      <trkpt lat="52.131044" lon="-0.527964">
        <ele>37.362869</ele>
        <time>2026-05-24T07:35:44.000Z</time>
      </trkpt>
      <trkpt lat="52.130946" lon="-0.527765">
        <ele>37.069729</ele>
        <time>2026-05-24T07:35:46.000Z</time>
      </trkpt>
      <trkpt lat="52.130726" lon="-0.527544">
        <ele>36.581358</ele>
        <time>2026-05-24T07:35:49.000Z</time>
      </trkpt>
      <trkpt lat="52.130502" lon="-0.527422">
        <ele>36.21665</ele>
        <time>2026-05-24T07:35:52.000Z</time>
      </trkpt>
      <trkpt lat="52.13003" lon="-0.527251">
        <ele>35.424942</ele>
        <time>2026-05-24T07:35:57.000Z</time>
      </trkpt>
      <trkpt lat="52.129274" lon="-0.527097">
        <ele>34.221004</ele>
        <time>2026-05-24T07:36:05.000Z</time>
      </trkpt>
      <trkpt lat="52.129221" lon="-0.527094">
        <ele>34.160406</ele>
        <time>2026-05-24T07:36:06.000Z</time>
      </trkpt>
      <trkpt lat="52.129233" lon="-0.527098">
        <ele>34.157099</ele>
        <time>2026-05-24T07:36:06.000Z</time>
      </trkpt>
      <trkpt lat="52.127476" lon="-0.526356">
        <ele>33.080215</ele>
        <time>2026-05-24T07:36:26.000Z</time>
      </trkpt>
      <trkpt lat="52.126434" lon="-0.525754">
        <ele>33.104811</ele>
        <time>2026-05-24T07:36:38.000Z</time>
      </trkpt>
      <trkpt lat="52.125334" lon="-0.525115">
        <ele>33.238756</ele>
        <time>2026-05-24T07:36:51.000Z</time>
      </trkpt>
      <trkpt lat="52.124312" lon="-0.52432">
        <ele>32.807613</ele>
        <time>2026-05-24T07:37:04.000Z</time>
      </trkpt>
      <trkpt lat="52.123876" lon="-0.524073">
        <ele>32.635688</ele>
        <time>2026-05-24T07:37:09.000Z</time>
      </trkpt>
      <trkpt lat="52.123507" lon="-0.52391">
        <ele>32.263657</ele>
        <time>2026-05-24T07:37:13.000Z</time>
      </trkpt>
      <trkpt lat="52.123062" lon="-0.523769">
        <ele>31.782263</ele>
        <time>2026-05-24T07:37:18.000Z</time>
      </trkpt>
      <trkpt lat="52.122106" lon="-0.523325">
        <ele>30.725277</ele>
        <time>2026-05-24T07:37:29.000Z</time>
      </trkpt>
      <trkpt lat="52.121818" lon="-0.523224">
        <ele>30.930543</ele>
        <time>2026-05-24T07:37:32.000Z</time>
      </trkpt>
      <trkpt lat="52.121803" lon="-0.52323">
        <ele>30.936164</ele>
        <time>2026-05-24T07:37:32.000Z</time>
      </trkpt>
      <trkpt lat="52.12178" lon="-0.523231">
        <ele>30.957152</ele>
        <time>2026-05-24T07:37:32.000Z</time>
      </trkpt>
      <trkpt lat="52.121455" lon="-0.523175">
        <ele>31.219921</ele>
        <time>2026-05-24T07:37:36.000Z</time>
      </trkpt>
      <trkpt lat="52.121112" lon="-0.52305">
        <ele>31.509084</ele>
        <time>2026-05-24T07:37:40.000Z</time>
      </trkpt>
      <trkpt lat="52.120355" lon="-0.522611">
        <ele>32.149709</ele>
        <time>2026-05-24T07:37:49.000Z</time>
      </trkpt>
      <trkpt lat="52.120046" lon="-0.522336">
        <ele>32.173762</ele>
        <time>2026-05-24T07:37:53.000Z</time>
      </trkpt>
      <trkpt lat="52.119101" lon="-0.521097">
        <ele>32.251061</ele>
        <time>2026-05-24T07:38:06.000Z</time>
      </trkpt>
      <trkpt lat="52.11857" lon="-0.520432">
        <ele>31.731357</ele>
        <time>2026-05-24T07:38:13.000Z</time>
      </trkpt>
      <trkpt lat="52.118001" lon="-0.519607">
        <ele>30.776951</ele>
        <time>2026-05-24T07:38:21.000Z</time>
      </trkpt>
      <trkpt lat="52.11738" lon="-0.518739">
        <ele>29.854639</ele>
        <time>2026-05-24T07:38:30.000Z</time>
      </trkpt>
      <trkpt lat="52.117353" lon="-0.518629">
        <ele>29.792985</ele>
        <time>2026-05-24T07:38:31.000Z</time>
      </trkpt>
      <trkpt lat="52.117399" lon="-0.518484">
        <ele>29.704494</ele>
        <time>2026-05-24T07:38:32.000Z</time>
      </trkpt>
      <trkpt lat="52.117399" lon="-0.518307">
        <ele>29.615834</ele>
        <time>2026-05-24T07:38:33.000Z</time>
      </trkpt>
      <trkpt lat="52.117379" lon="-0.518238">
        <ele>29.57088</ele>
        <time>2026-05-24T07:38:34.000Z</time>
      </trkpt>
      <trkpt lat="52.118088" lon="-0.517077">
        <ele>28.7512</ele>
        <time>2026-05-24T07:38:45.000Z</time>
      </trkpt>
      <trkpt lat="52.119428" lon="-0.515033">
        <ele>27.563342</ele>
        <time>2026-05-24T07:39:05.000Z</time>
      </trkpt>
      <trkpt lat="52.120262" lon="-0.513713">
        <ele>27.359529</ele>
        <time>2026-05-24T07:39:18.000Z</time>
      </trkpt>
      <trkpt lat="52.120545" lon="-0.513229">
        <ele>27.326781</ele>
        <time>2026-05-24T07:39:23.000Z</time>
      </trkpt>
      <trkpt lat="52.120771" lon="-0.513036">
        <ele>27.306586</ele>
        <time>2026-05-24T07:39:26.000Z</time>
      </trkpt>
      <trkpt lat="52.120854" lon="-0.513048">
        <ele>27.30056</ele>
        <time>2026-05-24T07:39:27.000Z</time>
      </trkpt>
      <trkpt lat="52.12113" lon="-0.513237">
        <ele>27.348656</ele>
        <time>2026-05-24T07:39:30.000Z</time>
      </trkpt>
      <trkpt lat="52.121952" lon="-0.514334">
        <ele>27.642571</ele>
        <time>2026-05-24T07:39:42.000Z</time>
      </trkpt>
      <trkpt lat="52.122425" lon="-0.51479">
        <ele>27.793665</ele>
        <time>2026-05-24T07:39:48.000Z</time>
      </trkpt>
      <trkpt lat="52.122987" lon="-0.515237">
        <ele>28.036881</ele>
        <time>2026-05-24T07:39:55.000Z</time>
      </trkpt>
      <trkpt lat="52.123649" lon="-0.515661">
        <ele>28.308756</ele>
        <time>2026-05-24T07:40:03.000Z</time>
      </trkpt>
      <trkpt lat="52.124584" lon="-0.516145">
        <ele>28.615028</ele>
        <time>2026-05-24T07:40:14.000Z</time>
      </trkpt>
      <trkpt lat="52.126773" lon="-0.517186">
        <ele>29.059302</ele>
        <time>2026-05-24T07:40:39.000Z</time>
      </trkpt>
      <trkpt lat="52.126801" lon="-0.517204">
        <ele>29.062029</ele>
        <time>2026-05-24T07:40:39.000Z</time>
      </trkpt>
      <trkpt lat="52.128545" lon="-0.517996">
        <ele>29.055066</ele>
        <time>2026-05-24T07:40:59.000Z</time>
      </trkpt>
      <trkpt lat="52.128706" lon="-0.518161">
        <ele>29.035074</ele>
        <time>2026-05-24T07:41:01.000Z</time>
      </trkpt>
      <trkpt lat="52.128792" lon="-0.51837">
        <ele>29.020642</ele>
        <time>2026-05-24T07:41:03.000Z</time>
      </trkpt>
      <trkpt lat="52.128836" lon="-0.5186">
        <ele>29.006257</ele>
        <time>2026-05-24T07:41:05.000Z</time>
      </trkpt>
      <trkpt lat="52.128967" lon="-0.518753">
        <ele>28.991866</ele>
        <time>2026-05-24T07:41:07.000Z</time>
      </trkpt>
      <trkpt lat="52.129038" lon="-0.518758">
        <ele>28.984525</ele>
        <time>2026-05-24T07:41:08.000Z</time>
      </trkpt>
      <trkpt lat="52.129178" lon="-0.518684">
        <ele>28.971696</ele>
        <time>2026-05-24T07:41:10.000Z</time>
      </trkpt>
      <trkpt lat="52.129624" lon="-0.518679">
        <ele>28.933093</ele>
        <time>2026-05-24T07:41:15.000Z</time>
      </trkpt>
      <trkpt lat="52.131289" lon="-0.519592">
        <ele>28.784678</ele>
        <time>2026-05-24T07:41:35.000Z</time>
      </trkpt>
      <trkpt lat="52.134243" lon="-0.521452">
        <ele>28.548295</ele>
        <time>2026-05-24T07:42:10.000Z</time>
      </trkpt>
      <trkpt lat="52.134719" lon="-0.521715">
        <ele>28.624286</ele>
        <time>2026-05-24T07:42:16.000Z</time>
      </trkpt>
      <trkpt lat="52.135953" lon="-0.522163">
        <ele>28.83066</ele>
        <time>2026-05-24T07:42:30.000Z</time>
      </trkpt>
      <trkpt lat="52.136547" lon="-0.522288">
        <ele>29.076599</ele>
        <time>2026-05-24T07:42:37.000Z</time>
      </trkpt>
      <trkpt lat="52.136928" lon="-0.522343">
        <ele>29.231499</ele>
        <time>2026-05-24T07:42:41.000Z</time>
      </trkpt>
      <trkpt lat="52.137678" lon="-0.522339">
        <ele>29.52758</ele>
        <time>2026-05-24T07:42:49.000Z</time>
      </trkpt>
      <trkpt lat="52.138544" lon="-0.522246">
        <ele>29.549308</ele>
        <time>2026-05-24T07:42:59.000Z</time>
      </trkpt>
      <trkpt lat="52.140144" lon="-0.521992">
        <ele>29.483683</ele>
        <time>2026-05-24T07:43:17.000Z</time>
      </trkpt>
      <trkpt lat="52.141969" lon="-0.521805">
        <ele>29.283218</ele>
        <time>2026-05-24T07:43:37.000Z</time>
      </trkpt>
      <trkpt lat="52.142097" lon="-0.52187">
        <ele>29.272587</ele>
        <time>2026-05-24T07:43:38.000Z</time>
      </trkpt>
      <trkpt lat="52.142296" lon="-0.52198">
        <ele>29.256105</ele>
        <time>2026-05-24T07:43:40.000Z</time>
      </trkpt>
      <trkpt lat="52.142458" lon="-0.522108">
        <ele>29.241272</ele>
        <time>2026-05-24T07:43:42.000Z</time>
      </trkpt>
      <trkpt lat="52.142536" lon="-0.522248">
        <ele>29.232544</ele>
        <time>2026-05-24T07:43:43.000Z</time>
      </trkpt>
      <trkpt lat="52.142602" lon="-0.522754">
        <ele>29.207724</ele>
        <time>2026-05-24T07:43:47.000Z</time>
      </trkpt>
      <trkpt lat="52.142661" lon="-0.522967">
        <ele>29.212387</ele>
        <time>2026-05-24T07:43:49.000Z</time>
      </trkpt>
      <trkpt lat="52.142633" lon="-0.523487">
        <ele>29.61524</ele>
        <time>2026-05-24T07:43:53.000Z</time>
      </trkpt>
      <trkpt lat="52.142587" lon="-0.523837">
        <ele>29.897421</ele>
        <time>2026-05-24T07:43:55.000Z</time>
      </trkpt>
      <trkpt lat="52.142352" lon="-0.525757">
        <ele>31.412093</ele>
        <time>2026-05-24T07:44:08.000Z</time>
      </trkpt>
      <trkpt lat="52.142207" lon="-0.527007">
        <ele>34.457584</ele>
        <time>2026-05-24T07:44:17.000Z</time>
      </trkpt>
      <trkpt lat="52.142087" lon="-0.527852">
        <ele>36.645478</ele>
        <time>2026-05-24T07:44:23.000Z</time>
      </trkpt>
      <trkpt lat="52.141938" lon="-0.528689">
        <ele>38.854488</ele>
        <time>2026-05-24T07:44:29.000Z</time>
      </trkpt>
      <trkpt lat="52.141768" lon="-0.529716">
        <ele>41.922335</ele>
        <time>2026-05-24T07:44:36.000Z</time>
      </trkpt>
      <trkpt lat="52.141749" lon="-0.529835">
        <ele>42.276534</ele>
        <time>2026-05-24T07:44:37.000Z</time>
      </trkpt>
      <trkpt lat="52.141632" lon="-0.530466">
        <ele>44.187927</ele>
        <time>2026-05-24T07:44:42.000Z</time>
      </trkpt>
      <trkpt lat="52.141317" lon="-0.532044">
        <ele>48.046661</ele>
        <time>2026-05-24T07:44:53.000Z</time>
      </trkpt>
      <trkpt lat="52.141023" lon="-0.53332">
        <ele>49.864421</ele>
        <time>2026-05-24T07:45:02.000Z</time>
      </trkpt>
      <trkpt lat="52.140529" lon="-0.53524">
        <ele>50.916375</ele>
        <time>2026-05-24T07:45:16.000Z</time>
      </trkpt>
      <trkpt lat="52.140336" lon="-0.536069">
        <ele>50.702883</ele>
        <time>2026-05-24T07:45:22.000Z</time>
      </trkpt>
      <trkpt lat="52.140305" lon="-0.536213">
        <ele>50.66762</ele>
        <time>2026-05-24T07:45:23.000Z</time>
      </trkpt>
      <trkpt lat="52.140159" lon="-0.537138">
        <ele>50.137803</ele>
        <time>2026-05-24T07:45:30.000Z</time>
      </trkpt>
      <trkpt lat="52.140004" lon="-0.538314">
        <ele>47.576903</ele>
        <time>2026-05-24T07:45:38.000Z</time>
      </trkpt>
      <trkpt lat="52.139942" lon="-0.539053">
        <ele>45.947855</ele>
        <time>2026-05-24T07:45:43.000Z</time>
      </trkpt>
      <trkpt lat="52.139889" lon="-0.539803">
        <ele>44.346914</ele>
        <time>2026-05-24T07:45:48.000Z</time>
      </trkpt>
      <trkpt lat="52.139885" lon="-0.539852">
        <ele>44.250219</ele>
        <time>2026-05-24T07:45:48.000Z</time>
      </trkpt>
      <trkpt lat="52.139875" lon="-0.540887">
        <ele>42.304119</ele>
        <time>2026-05-24T07:45:55.000Z</time>
      </trkpt>
      <trkpt lat="52.139914" lon="-0.542003">
        <ele>40.210223</ele>
        <time>2026-05-24T07:46:03.000Z</time>
      </trkpt>
      <trkpt lat="52.139994" lon="-0.543035">
        <ele>38.932926</ele>
        <time>2026-05-24T07:46:10.000Z</time>
      </trkpt>
      <trkpt lat="52.140147" lon="-0.5439">
        <ele>39.728981</ele>
        <time>2026-05-24T07:46:16.000Z</time>
      </trkpt>
      <trkpt lat="52.140283" lon="-0.544355">
        <ele>40.195655</ele>
        <time>2026-05-24T07:46:19.000Z</time>
      </trkpt>
      <trkpt lat="52.140438" lon="-0.544715">
        <ele>40.580581</ele>
        <time>2026-05-24T07:46:22.000Z</time>
      </trkpt>
      <trkpt lat="52.140689" lon="-0.545078">
        <ele>41.054865</ele>
        <time>2026-05-24T07:46:26.000Z</time>
      </trkpt>
      <trkpt lat="52.140668" lon="-0.54517">
        <ele>41.14394</ele>
        <time>2026-05-24T07:46:27.000Z</time>
      </trkpt>
      <trkpt lat="52.140686" lon="-0.545282">
        <ele>41.245693</ele>
        <time>2026-05-24T07:46:28.000Z</time>
      </trkpt>
      <trkpt lat="52.140747" lon="-0.545347">
        <ele>41.355226</ele>
        <time>2026-05-24T07:46:29.000Z</time>
      </trkpt>
      <trkpt lat="52.140569" lon="-0.546537">
        <ele>42.757782</ele>
        <time>2026-05-24T07:46:37.000Z</time>
      </trkpt>
      <trkpt lat="52.140459" lon="-0.547004">
        <ele>43.332227</ele>
        <time>2026-05-24T07:46:40.000Z</time>
      </trkpt>
      <trkpt lat="52.140351" lon="-0.547304">
        <ele>43.72848</ele>
        <time>2026-05-24T07:46:42.000Z</time>
      </trkpt>
      <trkpt lat="52.140019" lon="-0.548201">
        <ele>44.630288</ele>
        <time>2026-05-24T07:46:49.000Z</time>
      </trkpt>
      <trkpt lat="52.139726" lon="-0.54885">
        <ele>44.452377</ele>
        <time>2026-05-24T07:46:54.000Z</time>
      </trkpt>
      <trkpt lat="52.139441" lon="-0.549335">
        <ele>44.304423</ele>
        <time>2026-05-24T07:46:59.000Z</time>
      </trkpt>
      <trkpt lat="52.139179" lon="-0.549767">
        <ele>44.168163</ele>
        <time>2026-05-24T07:47:03.000Z</time>
      </trkpt>
      <trkpt lat="52.137393" lon="-0.552322">
        <ele>42.703891</ele>
        <time>2026-05-24T07:47:29.000Z</time>
      </trkpt>
      <trkpt lat="52.137107" lon="-0.552669">
        <ele>42.578215</ele>
        <time>2026-05-24T07:47:33.000Z</time>
      </trkpt>
      <trkpt lat="52.135199" lon="-0.55513">
        <ele>42.170799</ele>
        <time>2026-05-24T07:48:00.000Z</time>
      </trkpt>
      <trkpt lat="52.134513" lon="-0.55602">
        <ele>42.289655</ele>
        <time>2026-05-24T07:48:10.000Z</time>
      </trkpt>
      <trkpt lat="52.132597" lon="-0.558256">
        <ele>43.24521</ele>
        <time>2026-05-24T07:48:36.000Z</time>
      </trkpt>
      <trkpt lat="52.130725" lon="-0.560374">
        <ele>44.538485</ele>
        <time>2026-05-24T07:49:01.000Z</time>
      </trkpt>
      <trkpt lat="52.130223" lon="-0.560966">
        <ele>45.064211</ele>
        <time>2026-05-24T07:49:08.000Z</time>
      </trkpt>
      <trkpt lat="52.129875" lon="-0.561449">
        <ele>45.787715</ele>
        <time>2026-05-24T07:49:13.000Z</time>
      </trkpt>
      <trkpt lat="52.129797" lon="-0.561579">
        <ele>45.978904</ele>
        <time>2026-05-24T07:49:14.000Z</time>
      </trkpt>
      <trkpt lat="52.129484" lon="-0.562124">
        <ele>46.701541</ele>
        <time>2026-05-24T07:49:19.000Z</time>
      </trkpt>
      <trkpt lat="52.129101" lon="-0.562887">
        <ele>47.668207</ele>
        <time>2026-05-24T07:49:26.000Z</time>
      </trkpt>
      <trkpt lat="52.128837" lon="-0.563555">
        <ele>49.040358</ele>
        <time>2026-05-24T07:49:31.000Z</time>
      </trkpt>
      <trkpt lat="52.128735" lon="-0.563808">
        <ele>49.594532</ele>
        <time>2026-05-24T07:49:33.000Z</time>
      </trkpt>
      <trkpt lat="52.128494" lon="-0.564578">
        <ele>51.161824</ele>
        <time>2026-05-24T07:49:39.000Z</time>
      </trkpt>
      <trkpt lat="52.127559" lon="-0.567849">
        <ele>58.082611</ele>
        <time>2026-05-24T07:50:04.000Z</time>
      </trkpt>
      <trkpt lat="52.127535" lon="-0.567917">
        <ele>58.210788</ele>
        <time>2026-05-24T07:50:05.000Z</time>
      </trkpt>
      <trkpt lat="52.126954" lon="-0.569863">
        <ele>61.470037</ele>
        <time>2026-05-24T07:50:20.000Z</time>
      </trkpt>
      <trkpt lat="52.125732" lon="-0.573674">
        <ele>65.348755</ele>
        <time>2026-05-24T07:50:49.000Z</time>
      </trkpt>
      <trkpt lat="52.125603" lon="-0.574075">
        <ele>64.69412</ele>
        <time>2026-05-24T07:50:52.000Z</time>
      </trkpt>
      <trkpt lat="52.125487" lon="-0.574421">
        <ele>64.111415</ele>
        <time>2026-05-24T07:50:55.000Z</time>
      </trkpt>
      <trkpt lat="52.122039" lon="-0.57045">
        <ele>53.550464</ele>
        <time>2026-05-24T07:51:42.000Z</time>
      </trkpt>
      <trkpt lat="52.121807" lon="-0.56995">
        <ele>52.49266</ele>
        <time>2026-05-24T07:51:46.000Z</time>
      </trkpt>
      <trkpt lat="52.121622" lon="-0.569466">
        <ele>52.458406</ele>
        <time>2026-05-24T07:51:50.000Z</time>
      </trkpt>
      <trkpt lat="52.121439" lon="-0.569069">
        <ele>52.63903</ele>
        <time>2026-05-24T07:51:53.000Z</time>
      </trkpt>
      <trkpt lat="52.121238" lon="-0.568573">
        <ele>52.864647</ele>
        <time>2026-05-24T07:51:57.000Z</time>
      </trkpt>
      <trkpt lat="52.120321" lon="-0.566002">
        <ele>56.760653</ele>
        <time>2026-05-24T07:52:17.000Z</time>
      </trkpt>
      <trkpt lat="52.119283" lon="-0.563379">
        <ele>61.54176</ele>
        <time>2026-05-24T07:52:38.000Z</time>
      </trkpt>
      <trkpt lat="52.11906" lon="-0.562889">
        <ele>62.208118</ele>
        <time>2026-05-24T07:52:42.000Z</time>
      </trkpt>
      <trkpt lat="52.118463" lon="-0.561708">
        <ele>60.310228</ele>
        <time>2026-05-24T07:52:52.000Z</time>
      </trkpt>
      <trkpt lat="52.117101" lon="-0.558481">
        <ele>50.985868</ele>
        <time>2026-05-24T07:53:19.000Z</time>
      </trkpt>
      <trkpt lat="52.116807" lon="-0.557946">
        <ele>49.364809</ele>
        <time>2026-05-24T07:53:24.000Z</time>
      </trkpt>
      <trkpt lat="52.115758" lon="-0.554809">
        <ele>46.07221</ele>
        <time>2026-05-24T07:53:48.000Z</time>
      </trkpt>
      <trkpt lat="52.115704" lon="-0.554568">
        <ele>45.975227</ele>
        <time>2026-05-24T07:53:50.000Z</time>
      </trkpt>
      <trkpt lat="52.115713" lon="-0.554424">
        <ele>45.92456</ele>
        <time>2026-05-24T07:53:51.000Z</time>
      </trkpt>
      <trkpt lat="52.115754" lon="-0.554288">
        <ele>45.871349</ele>
        <time>2026-05-24T07:53:52.000Z</time>
      </trkpt>
      <trkpt lat="52.116816" lon="-0.553099">
        <ele>45.069717</ele>
        <time>2026-05-24T07:54:06.000Z</time>
      </trkpt>
      <trkpt lat="52.117136" lon="-0.55268">
        <ele>44.711507</ele>
        <time>2026-05-24T07:54:11.000Z</time>
      </trkpt>
      <trkpt lat="52.118648" lon="-0.550296">
        <ele>43.087643</ele>
        <time>2026-05-24T07:54:34.000Z</time>
      </trkpt>
      <trkpt lat="52.119483" lon="-0.548795">
        <ele>42.404619</ele>
        <time>2026-05-24T07:54:48.000Z</time>
      </trkpt>
      <trkpt lat="52.119952" lon="-0.548171">
        <ele>42.301449</ele>
        <time>2026-05-24T07:54:55.000Z</time>
      </trkpt>
      <trkpt lat="52.120309" lon="-0.547539">
        <ele>42.213429</ele>
        <time>2026-05-24T07:55:01.000Z</time>
      </trkpt>
      <trkpt lat="52.121346" lon="-0.545671">
        <ele>41.6377</ele>
        <time>2026-05-24T07:55:18.000Z</time>
      </trkpt>
      <trkpt lat="52.121785" lon="-0.54485">
        <ele>41.332658</ele>
        <time>2026-05-24T07:55:25.000Z</time>
      </trkpt>
      <trkpt lat="52.122124" lon="-0.544404">
        <ele>41.35532</ele>
        <time>2026-05-24T07:55:30.000Z</time>
      </trkpt>
      <trkpt lat="52.122403" lon="-0.544097">
        <ele>41.375947</ele>
        <time>2026-05-24T07:55:34.000Z</time>
      </trkpt>
      <trkpt lat="52.122806" lon="-0.543523">
        <ele>41.409593</ele>
        <time>2026-05-24T07:55:40.000Z</time>
      </trkpt>
      <trkpt lat="52.123011" lon="-0.543264">
        <ele>41.426201</ele>
        <time>2026-05-24T07:55:43.000Z</time>
      </trkpt>
      <trkpt lat="52.123128" lon="-0.543149">
        <ele>41.434114</ele>
        <time>2026-05-24T07:55:45.000Z</time>
      </trkpt>
      <trkpt lat="52.123449" lon="-0.542822">
        <ele>41.503927</ele>
        <time>2026-05-24T07:55:49.000Z</time>
      </trkpt>
      <trkpt lat="52.123699" lon="-0.542523">
        <ele>41.576742</ele>
        <time>2026-05-24T07:55:52.000Z</time>
      </trkpt>
      <trkpt lat="52.123822" lon="-0.542285">
        <ele>41.620462</ele>
        <time>2026-05-24T07:55:54.000Z</time>
      </trkpt>
      <trkpt lat="52.123879" lon="-0.542086">
        <ele>41.653953</ele>
        <time>2026-05-24T07:55:55.000Z</time>
      </trkpt>
      <trkpt lat="52.124051" lon="-0.541381">
        <ele>41.761872</ele>
        <time>2026-05-24T07:56:00.000Z</time>
      </trkpt>
      <trkpt lat="52.124222" lon="-0.54097">
        <ele>41.834329</ele>
        <time>2026-05-24T07:56:03.000Z</time>
      </trkpt>
      <trkpt lat="52.124337" lon="-0.540776">
        <ele>41.864723</ele>
        <time>2026-05-24T07:56:05.000Z</time>
      </trkpt>
      <trkpt lat="52.124521" lon="-0.540567">
        <ele>41.872794</ele>
        <time>2026-05-24T07:56:07.000Z</time>
      </trkpt>
      <trkpt lat="52.124765" lon="-0.540611">
        <ele>41.881322</ele>
        <time>2026-05-24T07:56:10.000Z</time>
      </trkpt>
      <trkpt lat="52.124918" lon="-0.540691">
        <ele>41.887345</ele>
        <time>2026-05-24T07:56:12.000Z</time>
      </trkpt>
      <trkpt lat="52.125163" lon="-0.540892">
        <ele>41.897365</ele>
        <time>2026-05-24T07:56:15.000Z</time>
      </trkpt>
      <trkpt lat="52.125347" lon="-0.540958">
        <ele>41.904229</ele>
        <time>2026-05-24T07:56:17.000Z</time>
      </trkpt>
      <trkpt lat="52.125477" lon="-0.540951">
        <ele>41.909049</ele>
        <time>2026-05-24T07:56:18.000Z</time>
      </trkpt>
      <trkpt lat="52.125575" lon="-0.540893">
        <ele>41.91251</ele>
        <time>2026-05-24T07:56:19.000Z</time>
      </trkpt>
      <trkpt lat="52.125691" lon="-0.540734">
        <ele>41.918069</ele>
        <time>2026-05-24T07:56:21.000Z</time>
      </trkpt>
      <trkpt lat="52.12608" lon="-0.540151">
        <ele>41.967616</ele>
        <time>2026-05-24T07:56:27.000Z</time>
      </trkpt>
      <trkpt lat="52.126162" lon="-0.540063">
        <ele>41.981854</ele>
        <time>2026-05-24T07:56:28.000Z</time>
      </trkpt>
      <trkpt lat="52.126914" lon="-0.539163">
        <ele>42.128625</ele>
        <time>2026-05-24T07:56:38.000Z</time>
      </trkpt>
      <trkpt lat="52.12693" lon="-0.539119">
        <ele>42.133643</ele>
        <time>2026-05-24T07:56:38.000Z</time>
      </trkpt>
      <trkpt lat="52.127372" lon="-0.538546">
        <ele>42.226088</ele>
        <time>2026-05-24T07:56:44.000Z</time>
      </trkpt>
      <trkpt lat="52.128769" lon="-0.536571">
        <ele>42.583368</ele>
        <time>2026-05-24T07:57:05.000Z</time>
      </trkpt>
      <trkpt lat="52.129215" lon="-0.535822">
        <ele>42.61485</ele>
        <time>2026-05-24T07:57:12.000Z</time>
      </trkpt>
      <trkpt lat="52.129911" lon="-0.534598">
        <ele>42.664729</ele>
        <time>2026-05-24T07:57:23.000Z</time>
      </trkpt>
      <trkpt lat="52.130042" lon="-0.53428">
        <ele>42.505096</ele>
        <time>2026-05-24T07:57:26.000Z</time>
      </trkpt>
      <trkpt lat="52.130172" lon="-0.533934">
        <ele>42.327393</ele>
        <time>2026-05-24T07:57:29.000Z</time>
      </trkpt>
      <trkpt lat="52.130362" lon="-0.533312">
        <ele>42.023</ele>
        <time>2026-05-24T07:57:34.000Z</time>
      </trkpt>
      <trkpt lat="52.130453" lon="-0.532503">
        <ele>41.663732</ele>
        <time>2026-05-24T07:57:40.000Z</time>
      </trkpt>
      <trkpt lat="52.130511" lon="-0.531112">
        <ele>40.765131</ele>
        <time>2026-05-24T07:57:50.000Z</time>
      </trkpt>
      <trkpt lat="52.130614" lon="-0.530534">
        <ele>40.258322</ele>
        <time>2026-05-24T07:57:54.000Z</time>
      </trkpt>
      <trkpt lat="52.130779" lon="-0.52972">
        <ele>39.559792</ele>
        <time>2026-05-24T07:58:00.000Z</time>
      </trkpt>
      <trkpt lat="52.131068" lon="-0.528679">
        <ele>38.42249</ele>
        <time>2026-05-24T07:58:08.000Z</time>
      </trkpt>
      <trkpt lat="52.13114" lon="-0.528249">
        <ele>37.852823</ele>
        <time>2026-05-24T07:58:11.000Z</time>
      </trkpt>
      <trkpt lat="52.131038" lon="-0.527962">
        <ele>37.437489</ele>
        <time>2026-05-24T07:58:13.000Z</time>
      </trkpt>
      <trkpt lat="52.130936" lon="-0.527758">
        <ele>37.117621</ele>
        <time>2026-05-24T07:58:15.000Z</time>
      </trkpt>
      <trkpt lat="52.130716" lon="-0.527544">
        <ele>36.584714</ele>
        <time>2026-05-24T07:58:18.000Z</time>
      </trkpt>
      <trkpt lat="52.130518" lon="-0.527422">
        <ele>36.131136</ele>
        <time>2026-05-24T07:58:20.000Z</time>
      </trkpt>
      <trkpt lat="52.13002" lon="-0.527249">
        <ele>35.167716</ele>
        <time>2026-05-24T07:58:26.000Z</time>
      </trkpt>
      <trkpt lat="52.129264" lon="-0.527107">
        <ele>34.316598</ele>
        <time>2026-05-24T07:58:34.000Z</time>
      </trkpt>
      <trkpt lat="52.129225" lon="-0.527093">
        <ele>34.273752</ele>
        <time>2026-05-24T07:58:34.000Z</time>
      </trkpt>
      <trkpt lat="52.129231" lon="-0.527091">
        <ele>34.271421</ele>
        <time>2026-05-24T07:58:34.000Z</time>
      </trkpt>
      <trkpt lat="52.127476" lon="-0.526368">
        <ele>33.144673</ele>
        <time>2026-05-24T07:58:54.000Z</time>
      </trkpt>
      <trkpt lat="52.126434" lon="-0.525741">
        <ele>33.072251</ele>
        <time>2026-05-24T07:59:06.000Z</time>
      </trkpt>
      <trkpt lat="52.12533" lon="-0.525127">
        <ele>33.229378</ele>
        <time>2026-05-24T07:59:19.000Z</time>
      </trkpt>
      <trkpt lat="52.124308" lon="-0.524334">
        <ele>32.763531</ele>
        <time>2026-05-24T07:59:32.000Z</time>
      </trkpt>
      <trkpt lat="52.123872" lon="-0.524066">
        <ele>32.420613</ele>
        <time>2026-05-24T07:59:37.000Z</time>
      </trkpt>
      <trkpt lat="52.123502" lon="-0.523904">
        <ele>32.131581</ele>
        <time>2026-05-24T07:59:41.000Z</time>
      </trkpt>
      <trkpt lat="52.123053" lon="-0.523774">
        <ele>31.8689563641</ele>
        <time>2026-05-24T07:59:46.000Z</time>
      </trkpt>
      <trkpt lat="52.122109" lon="-0.523313">
        <ele>31.3014133173</ele>
        <time>2026-05-24T07:59:57.000Z</time>
      </trkpt>
      <trkpt lat="52.121814" lon="-0.523221">
        <ele>31.128441778</ele>
        <time>2026-05-24T08:00:00.000Z</time>
      </trkpt>
      <trkpt lat="52.121812" lon="-0.523236">
        <ele>31.1230144177</ele>
        <time>2026-05-24T08:00:00.000Z</time>
      </trkpt>
    </trkseg>
  </trk>
</gpx>

<!--
Performance optimized by W3 Total Cache. Learn more: https://www.boldgrid.com/w3-total-cache/?utm_source=w3tc&utm_medium=footer_comment&utm_campaign=free_plugin

Page Caching using Disk: Enhanced{w3tc_pagecache_reject_reason} 

Served from: www.aquabike.world @ 2026-05-10 05:38:19 by W3 Total Cache
-->